createdAt,value
2023-04-22T18:54:54.868Z,3.22
2023-04-22T18:57:22.734Z,6.75
2023-04-22T18:59:51.068Z,4.18
2023-04-22T19:02:19.083Z,9.82
2023-04-22T19:04:47.305Z,7.38
2023-04-22T19:07:15.231Z,7.75
2023-04-22T19:09:43.072Z,6.50
2023-04-22T19:12:14.688Z,7.75
2023-04-22T19:14:43.038Z,10.88
2023-04-22T19:17:11.141Z,11.20
2023-04-22T19:19:39.386Z,17.25
2023-04-22T19:22:08.016Z,14.57
2023-04-22T19:24:35.997Z,17.25
2023-04-22T19:27:06.868Z,14.68
2023-04-22T19:29:36.089Z,17.25
2023-04-22T19:32:05.046Z,19.23
2023-04-22T19:34:32.950Z,11.57
2023-04-22T19:37:02.822Z,18.27
2023-04-22T19:39:30.973Z,17.60
2023-04-22T19:41:59.576Z,14.98
2023-04-22T19:44:27.455Z,19.88
2023-04-22T19:46:56.884Z,22.73
2023-04-22T19:49:25.314Z,26.17
2023-04-22T19:51:54.483Z,25.67
2023-04-22T19:54:22.811Z,23.50
2023-04-22T19:56:51.074Z,26.58
2023-04-22T19:59:19.435Z,26.10
2023-04-22T20:01:47.888Z,29.10
2023-04-22T20:04:17.870Z,31.63
2023-04-22T20:06:46.387Z,31.42
2023-04-22T20:09:15.481Z,31.73
2023-04-22T20:11:43.449Z,30.40
2023-04-22T20:14:13.597Z,32.60
2023-04-22T20:16:42.236Z,33.50
2023-04-22T20:19:11.608Z,38.03
2023-04-22T20:21:41.174Z,43.88
2023-04-22T20:24:11.844Z,38.30
2023-04-22T20:26:40.472Z,43.08
2023-04-22T20:29:09.117Z,43.20
2023-04-22T20:31:37.540Z,38.50
2023-04-22T20:34:05.758Z,39.08
2023-04-22T20:36:34.790Z,37.17
2023-04-22T20:39:05.264Z,38.40
2023-04-22T20:41:39.188Z,38.55
2023-04-22T20:44:07.741Z,42.17
2023-04-22T20:46:35.826Z,36.85
2023-04-22T20:49:03.725Z,41.30
2023-04-22T20:51:31.823Z,32.88
2023-04-22T20:54:00.058Z,36.25
2023-04-22T20:56:29.272Z,37.22
2023-04-22T20:58:57.281Z,42.65
2023-04-22T21:01:27.410Z,43.20
2023-04-22T21:03:58.313Z,39.67
2023-04-22T21:06:28.594Z,41.58
2023-04-22T21:08:57.632Z,42.53
2023-04-22T21:11:26.044Z,46.25
2023-04-22T21:13:55.710Z,48.30
2023-04-22T21:16:27.365Z,40.55
2023-04-22T21:18:59.083Z,49.40
2023-04-22T21:21:31.456Z,52.00
2023-04-22T21:24:01.284Z,45.58
2023-04-22T21:26:30.417Z,51.63
2023-04-22T21:29:00.151Z,52.28
2023-04-22T21:31:28.119Z,62.95
2023-04-22T21:33:56.095Z,50.55
2023-04-22T21:36:24.865Z,48.67
2023-04-22T21:38:52.758Z,51.83
2023-04-22T21:41:20.611Z,54.63
2023-04-22T21:43:48.463Z,57.83
2023-04-22T21:46:17.917Z,54.75
2023-04-22T21:48:45.795Z,56.00
2023-04-22T21:51:13.664Z,52.97
2023-04-22T21:53:41.550Z,52.00
2023-04-22T21:56:09.463Z,58.15
2023-04-22T21:58:37.302Z,55.17
2023-04-22T22:01:05.188Z,51.20
2023-04-22T22:03:36.145Z,56.90
2023-04-22T22:06:04.397Z,68.43
2023-04-22T22:08:32.635Z,55.88
2023-04-22T22:11:00.570Z,54.42
2023-04-22T22:13:28.402Z,59.38
2023-04-22T22:15:57.455Z,60.10
2023-04-22T22:18:25.457Z,61.40
2023-04-22T22:20:54.781Z,53.90
2023-04-22T22:23:22.712Z,60.85
2023-04-22T22:25:50.690Z,67.30
2023-04-22T22:28:18.565Z,62.38
2023-04-22T22:30:46.631Z,62.22
2023-04-22T22:33:14.516Z,70.72
2023-04-22T22:35:42.444Z,61.20
2023-04-22T22:38:11.709Z,62.88
2023-04-22T22:40:39.536Z,61.70
2023-04-22T22:43:07.458Z,60.85
2023-04-22T22:45:35.759Z,60.13
2023-04-22T22:48:03.911Z,58.40
2023-04-22T22:50:31.830Z,59.58
2023-04-22T22:53:00.419Z,62.55
2023-04-22T22:55:29.655Z,63.85
2023-04-22T22:57:57.540Z,66.18
2023-04-22T23:00:25.425Z,59.78
2023-04-22T23:02:53.470Z,63.33
2023-04-22T23:05:21.744Z,60.38
2023-04-22T23:07:49.673Z,63.50
2023-04-22T23:10:17.580Z,64.10
2023-04-22T23:12:46.762Z,69.38
2023-04-22T23:15:14.640Z,72.20
2023-04-22T23:17:42.581Z,70.05
2023-04-22T23:20:11.999Z,68.65
2023-04-22T23:22:40.769Z,70.28
2023-04-22T23:25:10.200Z,64.15
2023-04-22T23:27:38.575Z,75.75
2023-04-22T23:30:09.885Z,71.25
2023-04-22T23:32:41.043Z,73.43
2023-04-22T23:35:11.752Z,69.13
2023-04-22T23:37:44.041Z,68.28
2023-04-22T23:40:12.669Z,65.30
2023-04-22T23:42:40.657Z,67.97
2023-04-22T23:45:11.623Z,73.45
2023-04-22T23:47:39.523Z,73.18
2023-04-22T23:50:08.582Z,75.65
2023-04-22T23:52:40.943Z,78.32
2023-04-22T23:55:10.262Z,77.72
2023-04-22T23:57:38.749Z,77.07
